sensor_id;sensor_type;location;lat;lon;timestamp;temperature;humidity
810;DHT22;387;48.772;9.186;2022-12-07T00:00:50;4.40;91.10
810;DHT22;387;48.772;9.186;2022-12-07T00:03:16;4.50;91.20
810;DHT22;387;48.772;9.186;2022-12-07T00:05:41;4.40;90.80
810;DHT22;387;48.772;9.186;2022-12-07T00:08:07;4.30;90.80
810;DHT22;387;48.772;9.186;2022-12-07T00:10:36;4.40;91.00
810;DHT22;387;48.772;9.186;2022-12-07T00:13:01;4.50;91.10
810;DHT22;387;48.772;9.186;2022-12-07T00:15:27;4.60;90.90
810;DHT22;387;48.772;9.186;2022-12-07T00:17:52;4.60;90.90
810;DHT22;387;48.772;9.186;2022-12-07T00:20:18;4.70;90.70
810;DHT22;387;48.772;9.186;2022-12-07T00:22:43;4.70;90.50
810;DHT22;387;48.772;9.186;2022-12-07T00:25:09;4.30;90.40
810;DHT22;387;48.772;9.186;2022-12-07T00:27:34;4.20;91.10
810;DHT22;387;48.772;9.186;2022-12-07T00:30:00;4.20;91.30
810;DHT22;387;48.772;9.186;2022-12-07T00:32:26;4.20;91.40
810;DHT22;387;48.772;9.186;2022-12-07T00:34:52;4.30;91.20
810;DHT22;387;48.772;9.186;2022-12-07T00:37:17;4.30;91.10
810;DHT22;387;48.772;9.186;2022-12-07T00:39:43;4.30;91.10
810;DHT22;387;48.772;9.186;2022-12-07T00:42:08;4.40;91.00
810;DHT22;387;48.772;9.186;2022-12-07T00:44:34;4.30;90.70
810;DHT22;387;48.772;9.186;2022-12-07T00:46:59;4.30;90.60
810;DHT22;387;48.772;9.186;2022-12-07T00:49:25;4.20;90.60
810;DHT22;387;48.772;9.186;2022-12-07T00:51:51;4.10;90.70
810;DHT22;387;48.772;9.186;2022-12-07T00:54:16;4.10;91.00
810;DHT22;387;48.772;9.186;2022-12-07T00:56:42;4.00;90.80
810;DHT22;387;48.772;9.186;2022-12-07T00:59:12;4.00;91.00
810;DHT22;387;48.772;9.186;2022-12-07T01:01:39;4.10;91.00
810;DHT22;387;48.772;9.186;2022-12-07T01:04:05;4.20;90.80
810;DHT22;387;48.772;9.186;2022-12-07T01:06:31;4.10;90.00
810;DHT22;387;48.772;9.186;2022-12-07T01:08:57;4.00;90.30
810;DHT22;387;48.772;9.186;2022-12-07T01:11:26;4.00;90.20
810;DHT22;387;48.772;9.186;2022-12-07T01:13:53;4.00;90.30
810;DHT22;387;48.772;9.186;2022-12-07T01:16:21;4.00;90.20
810;DHT22;387;48.772;9.186;2022-12-07T01:18:48;4.00;90.10
810;DHT22;387;48.772;9.186;2022-12-07T01:21:20;4.10;90.20
810;DHT22;387;48.772;9.186;2022-12-07T01:23:46;4.30;90.10
810;DHT22;387;48.772;9.186;2022-12-07T01:26:14;4.30;89.70
810;DHT22;387;48.772;9.186;2022-12-07T01:28:40;4.30;89.30
810;DHT22;387;48.772;9.186;2022-12-07T01:31:11;4.10;89.20
810;DHT22;387;48.772;9.186;2022-12-07T01:33:38;4.10;89.50
810;DHT22;387;48.772;9.186;2022-12-07T01:36:06;4.10;89.50
810;DHT22;387;48.772;9.186;2022-12-07T01:38:32;4.20;89.60
810;DHT22;387;48.772;9.186;2022-12-07T01:40:59;4.20;89.30
810;DHT22;387;48.772;9.186;2022-12-07T01:43:27;4.20;89.20
810;DHT22;387;48.772;9.186;2022-12-07T01:45:53;4.20;89.00
810;DHT22;387;48.772;9.186;2022-12-07T01:48:41;4.20;88.70
810;DHT22;387;48.772;9.186;2022-12-07T01:51:12;4.10;88.90
810;DHT22;387;48.772;9.186;2022-12-07T01:53:42;4.20;89.20
810;DHT22;387;48.772;9.186;2022-12-07T01:56:12;4.20;89.00
810;DHT22;387;48.772;9.186;2022-12-07T01:58:39;4.20;89.00
810;DHT22;387;48.772;9.186;2022-12-07T02:01:05;4.20;89.20
810;DHT22;387;48.772;9.186;2022-12-07T02:03:41;4.00;89.30
810;DHT22;387;48.772;9.186;2022-12-07T02:06:08;4.00;89.50
810;DHT22;387;48.772;9.186;2022-12-07T02:08:35;4.10;89.60
810;DHT22;387;48.772;9.186;2022-12-07T02:11:02;4.20;89.60
810;DHT22;387;48.772;9.186;2022-12-07T02:13:31;4.30;89.50
810;DHT22;387;48.772;9.186;2022-12-07T02:21:52;4.30;88.10
810;DHT22;387;48.772;9.186;2022-12-07T02:24:24;4.30;88.60
810;DHT22;387;48.772;9.186;2022-12-07T02:27:06;4.30;88.60
810;DHT22;387;48.772;9.186;2022-12-07T02:29:44;4.30;88.40
810;DHT22;387;48.772;9.186;2022-12-07T02:32:21;4.30;88.70
810;DHT22;387;48.772;9.186;2022-12-07T02:34:51;4.40;88.70
810;DHT22;387;48.772;9.186;2022-12-07T02:37:42;4.40;88.60
810;DHT22;387;48.772;9.186;2022-12-07T02:40:20;4.30;88.30
810;DHT22;387;48.772;9.186;2022-12-07T02:42:53;4.40;88.40
810;DHT22;387;48.772;9.186;2022-12-07T02:45:22;4.50;88.30
810;DHT22;387;48.772;9.186;2022-12-07T02:47:51;4.40;88.10
810;DHT22;387;48.772;9.186;2022-12-07T02:50:21;4.40;88.10
810;DHT22;387;48.772;9.186;2022-12-07T02:52:47;4.30;88.10
810;DHT22;387;48.772;9.186;2022-12-07T02:55:15;4.20;88.10
810;DHT22;387;48.772;9.186;2022-12-07T02:57:49;4.20;88.60
810;DHT22;387;48.772;9.186;2022-12-07T03:00:19;4.30;88.60
810;DHT22;387;48.772;9.186;2022-12-07T03:03:05;4.30;88.40
810;DHT22;387;48.772;9.186;2022-12-07T03:08:21;4.20;88.40
810;DHT22;387;48.772;9.186;2022-12-07T03:13:33;4.20;88.40
810;DHT22;387;48.772;9.186;2022-12-07T03:16:14;4.20;88.60
810;DHT22;387;48.772;9.186;2022-12-07T03:19:13;4.10;88.70
810;DHT22;387;48.772;9.186;2022-12-07T03:21:42;4.10;89.00
810;DHT22;387;48.772;9.186;2022-12-07T03:24:23;4.10;89.20
810;DHT22;387;48.772;9.186;2022-12-07T03:26:58;4.10;89.20
810;DHT22;387;48.772;9.186;2022-12-07T03:29:43;4.00;89.20
810;DHT22;387;48.772;9.186;2022-12-07T03:32:16;4.10;89.50
810;DHT22;387;48.772;9.186;2022-12-07T03:34:52;4.20;89.50
810;DHT22;387;48.772;9.186;2022-12-07T03:37:43;4.20;89.20
810;DHT22;387;48.772;9.186;2022-12-07T03:42:44;4.20;89.00
810;DHT22;387;48.772;9.186;2022-12-07T03:45:10;4.20;88.90
810;DHT22;387;48.772;9.186;2022-12-07T03:48:02;4.20;88.70
810;DHT22;387;48.772;9.186;2022-12-07T03:50:46;4.10;88.70
810;DHT22;387;48.772;9.186;2022-12-07T03:53:19;4.10;88.90
810;DHT22;387;48.772;9.186;2022-12-07T03:55:46;4.10;88.90
810;DHT22;387;48.772;9.186;2022-12-07T03:58:17;4.10;89.00
810;DHT22;387;48.772;9.186;2022-12-07T04:00:44;4.10;89.00
810;DHT22;387;48.772;9.186;2022-12-07T04:03:11;4.10;89.30
810;DHT22;387;48.772;9.186;2022-12-07T04:05:37;4.10;89.50
810;DHT22;387;48.772;9.186;2022-12-07T04:08:03;4.10;89.50
810;DHT22;387;48.772;9.186;2022-12-07T04:10:29;4.00;89.50
810;DHT22;387;48.772;9.186;2022-12-07T04:12:55;4.10;89.50
810;DHT22;387;48.772;9.186;2022-12-07T04:15:21;4.10;89.20
810;DHT22;387;48.772;9.186;2022-12-07T04:17:47;4.00;89.00
810;DHT22;387;48.772;9.186;2022-12-07T04:20:13;3.90;89.20
810;DHT22;387;48.772;9.186;2022-12-07T04:22:39;3.90;89.30
810;DHT22;387;48.772;9.186;2022-12-07T04:25:05;3.90;89.30
810;DHT22;387;48.772;9.186;2022-12-07T04:27:30;3.90;89.60
810;DHT22;387;48.772;9.186;2022-12-07T04:29:56;3.90;89.50
810;DHT22;387;48.772;9.186;2022-12-07T04:32:22;3.90;89.50
810;DHT22;387;48.772;9.186;2022-12-07T04:34:48;3.80;89.50
810;DHT22;387;48.772;9.186;2022-12-07T04:37:14;3.80;89.90
810;DHT22;387;48.772;9.186;2022-12-07T04:39:39;3.80;89.90
810;DHT22;387;48.772;9.186;2022-12-07T04:42:05;3.70;89.70
810;DHT22;387;48.772;9.186;2022-12-07T04:44:31;3.70;89.60
810;DHT22;387;48.772;9.186;2022-12-07T04:46:57;3.80;89.30
810;DHT22;387;48.772;9.186;2022-12-07T04:49:23;3.80;88.10
810;DHT22;387;48.772;9.186;2022-12-07T04:51:50;3.80;88.00
810;DHT22;387;48.772;9.186;2022-12-07T04:54:16;3.90;87.30
810;DHT22;387;48.772;9.186;2022-12-07T04:56:43;3.90;86.20
810;DHT22;387;48.772;9.186;2022-12-07T04:59:13;3.90;84.30
810;DHT22;387;48.772;9.186;2022-12-07T05:01:39;4.00;83.10
810;DHT22;387;48.772;9.186;2022-12-07T05:04:05;4.00;82.40
810;DHT22;387;48.772;9.186;2022-12-07T05:06:30;4.00;81.90
810;DHT22;387;48.772;9.186;2022-12-07T05:08:56;4.10;81.20
810;DHT22;387;48.772;9.186;2022-12-07T05:11:22;4.00;80.80
810;DHT22;387;48.772;9.186;2022-12-07T05:14:18;4.00;80.00
810;DHT22;387;48.772;9.186;2022-12-07T05:16:46;4.10;79.00
810;DHT22;387;48.772;9.186;2022-12-07T05:19:12;4.20;77.70
810;DHT22;387;48.772;9.186;2022-12-07T05:21:39;4.10;78.10
810;DHT22;387;48.772;9.186;2022-12-07T05:24:05;4.10;79.20
810;DHT22;387;48.772;9.186;2022-12-07T05:26:31;4.10;79.60
810;DHT22;387;48.772;9.186;2022-12-07T05:28:57;4.10;79.60
810;DHT22;387;48.772;9.186;2022-12-07T05:31:24;4.10;79.20
810;DHT22;387;48.772;9.186;2022-12-07T05:33:50;4.10;79.20
810;DHT22;387;48.772;9.186;2022-12-07T05:36:16;3.90;79.60
810;DHT22;387;48.772;9.186;2022-12-07T05:38:41;3.90;79.70
810;DHT22;387;48.772;9.186;2022-12-07T05:41:08;3.80;80.30
810;DHT22;387;48.772;9.186;2022-12-07T05:43:57;3.80;81.10
810;DHT22;387;48.772;9.186;2022-12-07T05:46:22;3.60;81.20
810;DHT22;387;48.772;9.186;2022-12-07T05:48:48;3.60;81.90
810;DHT22;387;48.772;9.186;2022-12-07T05:51:14;3.60;83.10
810;DHT22;387;48.772;9.186;2022-12-07T05:53:39;3.60;83.60
810;DHT22;387;48.772;9.186;2022-12-07T05:56:05;3.70;83.70
810;DHT22;387;48.772;9.186;2022-12-07T05:58:30;3.70;83.70
810;DHT22;387;48.772;9.186;2022-12-07T06:01:15;3.60;83.80
810;DHT22;387;48.772;9.186;2022-12-07T06:03:41;3.70;84.30
810;DHT22;387;48.772;9.186;2022-12-07T06:06:06;3.80;84.40
810;DHT22;387;48.772;9.186;2022-12-07T06:08:32;3.90;84.30
810;DHT22;387;48.772;9.186;2022-12-07T06:10:57;4.00;84.00
810;DHT22;387;48.772;9.186;2022-12-07T06:13:41;4.00;83.60
810;DHT22;387;48.772;9.186;2022-12-07T06:16:07;3.90;82.80
810;DHT22;387;48.772;9.186;2022-12-07T06:18:32;3.90;81.80
810;DHT22;387;48.772;9.186;2022-12-07T06:20:58;3.90;81.50
810;DHT22;387;48.772;9.186;2022-12-07T06:23:24;3.90;81.50
810;DHT22;387;48.772;9.186;2022-12-07T06:25:49;3.80;81.90
810;DHT22;387;48.772;9.186;2022-12-07T06:28:15;3.80;81.90
810;DHT22;387;48.772;9.186;2022-12-07T06:30:40;3.90;82.20
810;DHT22;387;48.772;9.186;2022-12-07T06:33:06;4.10;81.90
810;DHT22;387;48.772;9.186;2022-12-07T06:35:33;4.20;81.70
810;DHT22;387;48.772;9.186;2022-12-07T06:37:59;4.20;81.40
810;DHT22;387;48.772;9.186;2022-12-07T06:40:24;4.20;81.40
810;DHT22;387;48.772;9.186;2022-12-07T06:42:51;4.30;80.50
810;DHT22;387;48.772;9.186;2022-12-07T06:45:16;4.30;80.00
810;DHT22;387;48.772;9.186;2022-12-07T06:47:42;4.20;80.30
810;DHT22;387;48.772;9.186;2022-12-07T06:50:08;4.20;80.50
810;DHT22;387;48.772;9.186;2022-12-07T06:52:34;4.00;80.50
810;DHT22;387;48.772;9.186;2022-12-07T06:54:59;3.90;80.90
810;DHT22;387;48.772;9.186;2022-12-07T06:57:26;3.90;81.20
810;DHT22;387;48.772;9.186;2022-12-07T06:59:51;3.80;81.70
810;DHT22;387;48.772;9.186;2022-12-07T07:02:17;3.80;81.90
810;DHT22;387;48.772;9.186;2022-12-07T07:04:43;3.80;81.90
810;DHT22;387;48.772;9.186;2022-12-07T07:07:08;3.90;81.50
810;DHT22;387;48.772;9.186;2022-12-07T07:09:34;3.80;81.20
810;DHT22;387;48.772;9.186;2022-12-07T07:12:00;3.70;80.30
810;DHT22;387;48.772;9.186;2022-12-07T07:14:25;3.80;81.10
810;DHT22;387;48.772;9.186;2022-12-07T07:16:51;3.80;81.10
810;DHT22;387;48.772;9.186;2022-12-07T07:19:17;3.80;81.20
810;DHT22;387;48.772;9.186;2022-12-07T07:21:43;3.90;81.10
810;DHT22;387;48.772;9.186;2022-12-07T07:24:09;4.00;80.60
810;DHT22;387;48.772;9.186;2022-12-07T07:26:34;3.90;80.20
810;DHT22;387;48.772;9.186;2022-12-07T07:29:00;4.00;80.20
810;DHT22;387;48.772;9.186;2022-12-07T07:31:25;3.90;80.00
810;DHT22;387;48.772;9.186;2022-12-07T07:33:51;4.00;79.50
810;DHT22;387;48.772;9.186;2022-12-07T07:36:17;4.00;79.30
810;DHT22;387;48.772;9.186;2022-12-07T07:38:42;3.90;79.30
810;DHT22;387;48.772;9.186;2022-12-07T07:41:08;3.90;79.70
810;DHT22;387;48.772;9.186;2022-12-07T07:43:33;4.00;79.20
810;DHT22;387;48.772;9.186;2022-12-07T07:45:59;4.00;78.60
810;DHT22;387;48.772;9.186;2022-12-07T07:48:24;4.00;78.70
810;DHT22;387;48.772;9.186;2022-12-07T07:50:51;3.90;79.00
810;DHT22;387;48.772;9.186;2022-12-07T07:53:16;3.90;79.60
810;DHT22;387;48.772;9.186;2022-12-07T07:55:53;4.10;79.20
810;DHT22;387;48.772;9.186;2022-12-07T07:58:19;4.10;78.60
810;DHT22;387;48.772;9.186;2022-12-07T08:00:44;4.10;77.80
810;DHT22;387;48.772;9.186;2022-12-07T08:03:10;4.10;78.30
810;DHT22;387;48.772;9.186;2022-12-07T08:05:37;4.10;78.10
810;DHT22;387;48.772;9.186;2022-12-07T08:08:03;4.10;78.40
810;DHT22;387;48.772;9.186;2022-12-07T08:10:28;4.10;78.30
810;DHT22;387;48.772;9.186;2022-12-07T08:12:54;4.20;78.60
810;DHT22;387;48.772;9.186;2022-12-07T08:15:41;4.20;78.30
810;DHT22;387;48.772;9.186;2022-12-07T08:18:07;4.30;78.40
810;DHT22;387;48.772;9.186;2022-12-07T08:20:34;4.30;78.60
810;DHT22;387;48.772;9.186;2022-12-07T08:23:00;4.40;78.70
810;DHT22;387;48.772;9.186;2022-12-07T08:25:27;4.40;78.70
810;DHT22;387;48.772;9.186;2022-12-07T08:27:53;4.40;77.60
810;DHT22;387;48.772;9.186;2022-12-07T08:30:19;4.40;77.80
810;DHT22;387;48.772;9.186;2022-12-07T08:32:45;4.40;77.70
810;DHT22;387;48.772;9.186;2022-12-07T08:35:12;4.50;77.80
810;DHT22;387;48.772;9.186;2022-12-07T08:37:38;4.50;77.70
810;DHT22;387;48.772;9.186;2022-12-07T08:40:05;4.60;77.10
810;DHT22;387;48.772;9.186;2022-12-07T08:42:31;4.60;77.10
810;DHT22;387;48.772;9.186;2022-12-07T08:45:09;4.60;77.10
810;DHT22;387;48.772;9.186;2022-12-07T08:47:37;4.60;77.00
810;DHT22;387;48.772;9.186;2022-12-07T08:50:06;4.60;76.40
810;DHT22;387;48.772;9.186;2022-12-07T08:52:33;4.60;76.50
810;DHT22;387;48.772;9.186;2022-12-07T08:55:00;4.60;76.20
810;DHT22;387;48.772;9.186;2022-12-07T08:57:27;4.60;76.20
810;DHT22;387;48.772;9.186;2022-12-07T08:59:53;4.60;76.40
810;DHT22;387;48.772;9.186;2022-12-07T09:02:19;4.60;76.40
810;DHT22;387;48.772;9.186;2022-12-07T09:04:45;4.60;76.20
810;DHT22;387;48.772;9.186;2022-12-07T09:07:11;4.60;76.50
810;DHT22;387;48.772;9.186;2022-12-07T09:09:36;4.70;76.20
810;DHT22;387;48.772;9.186;2022-12-07T09:12:02;4.70;75.80
810;DHT22;387;48.772;9.186;2022-12-07T09:14:28;4.70;75.40
810;DHT22;387;48.772;9.186;2022-12-07T09:16:54;4.70;75.50
810;DHT22;387;48.772;9.186;2022-12-07T09:19:19;4.70;75.50
810;DHT22;387;48.772;9.186;2022-12-07T09:21:45;4.80;75.50
810;DHT22;387;48.772;9.186;2022-12-07T09:24:12;4.80;75.50
810;DHT22;387;48.772;9.186;2022-12-07T09:26:37;4.80;75.40
810;DHT22;387;48.772;9.186;2022-12-07T09:29:04;4.80;75.10
810;DHT22;387;48.772;9.186;2022-12-07T09:31:30;5.00;75.20
810;DHT22;387;48.772;9.186;2022-12-07T09:34:00;5.10;74.80
810;DHT22;387;48.772;9.186;2022-12-07T09:36:26;5.10;74.60
810;DHT22;387;48.772;9.186;2022-12-07T09:38:52;5.10;74.30
810;DHT22;387;48.772;9.186;2022-12-07T09:41:18;5.10;74.20
810;DHT22;387;48.772;9.186;2022-12-07T09:43:44;5.20;73.90
810;DHT22;387;48.772;9.186;2022-12-07T09:46:16;5.20;73.90
810;DHT22;387;48.772;9.186;2022-12-07T09:48:46;5.30;73.90
810;DHT22;387;48.772;9.186;2022-12-07T09:51:18;5.20;73.90
810;DHT22;387;48.772;9.186;2022-12-07T09:53:44;5.20;74.20
810;DHT22;387;48.772;9.186;2022-12-07T09:56:17;5.30;74.00
810;DHT22;387;48.772;9.186;2022-12-07T09:58:45;5.30;73.70
810;DHT22;387;48.772;9.186;2022-12-07T10:01:14;5.20;73.90
810;DHT22;387;48.772;9.186;2022-12-07T10:03:49;5.30;74.60
810;DHT22;387;48.772;9.186;2022-12-07T10:06:15;5.30;74.50
810;DHT22;387;48.772;9.186;2022-12-07T10:08:41;5.50;74.50
810;DHT22;387;48.772;9.186;2022-12-07T10:11:09;5.40;74.20
810;DHT22;387;48.772;9.186;2022-12-07T10:13:40;5.50;74.20
810;DHT22;387;48.772;9.186;2022-12-07T10:16:06;5.60;74.50
810;DHT22;387;48.772;9.186;2022-12-07T10:18:52;5.70;74.20
810;DHT22;387;48.772;9.186;2022-12-07T10:21:26;5.70;73.60
810;DHT22;387;48.772;9.186;2022-12-07T10:24:14;5.60;73.90
810;DHT22;387;48.772;9.186;2022-12-07T10:29:17;5.90;73.90
810;DHT22;387;48.772;9.186;2022-12-07T10:31:44;5.90;73.60
810;DHT22;387;48.772;9.186;2022-12-07T10:34:25;6.10;73.30
810;DHT22;387;48.772;9.186;2022-12-07T10:36:53;6.10;72.90
810;DHT22;387;48.772;9.186;2022-12-07T10:39:21;5.90;73.30
810;DHT22;387;48.772;9.186;2022-12-07T10:44:25;6.00;73.90
810;DHT22;387;48.772;9.186;2022-12-07T10:57:47;5.80;74.50
810;DHT22;387;48.772;9.186;2022-12-07T11:00:23;5.70;74.80
810;DHT22;387;48.772;9.186;2022-12-07T11:03:09;5.80;75.20
810;DHT22;387;48.772;9.186;2022-12-07T11:05:54;5.80;74.80
810;DHT22;387;48.772;9.186;2022-12-07T11:11:38;5.80;75.20
810;DHT22;387;48.772;9.186;2022-12-07T11:14:28;5.80;74.90
810;DHT22;387;48.772;9.186;2022-12-07T11:22:40;5.60;76.10
810;DHT22;387;48.772;9.186;2022-12-07T11:30:43;6.00;74.90
810;DHT22;387;48.772;9.186;2022-12-07T11:33:19;6.00;74.90
810;DHT22;387;48.772;9.186;2022-12-07T11:39:15;6.10;74.90
810;DHT22;387;48.772;9.186;2022-12-07T11:41:20;6.10;74.90
810;DHT22;387;48.772;9.186;2022-12-07T11:51:54;6.10;75.20
810;DHT22;387;48.772;9.186;2022-12-07T11:54:39;6.20;74.90
810;DHT22;387;48.772;9.186;2022-12-07T11:57:16;6.20;74.90
810;DHT22;387;48.772;9.186;2022-12-07T11:59:50;6.00;75.20
810;DHT22;387;48.772;9.186;2022-12-07T12:05:25;5.60;77.10
810;DHT22;387;48.772;9.186;2022-12-07T12:08:30;5.30;81.20
810;DHT22;387;48.772;9.186;2022-12-07T12:21:47;4.80;83.60
810;DHT22;387;48.772;9.186;2022-12-07T12:24:25;4.80;84.40
810;DHT22;387;48.772;9.186;2022-12-07T12:27:01;4.80;84.40
810;DHT22;387;48.772;9.186;2022-12-07T12:29:40;4.80;84.30
810;DHT22;387;48.772;9.186;2022-12-07T12:32:38;4.80;84.70
810;DHT22;387;48.772;9.186;2022-12-07T12:35:33;4.80;84.60
810;DHT22;387;48.772;9.186;2022-12-07T12:38:25;5.00;84.10
810;DHT22;387;48.772;9.186;2022-12-07T12:40:53;4.90;83.70
810;DHT22;387;48.772;9.186;2022-12-07T12:43:45;4.90;83.80
810;DHT22;387;48.772;9.186;2022-12-07T12:56:55;5.50;81.50
810;DHT22;387;48.772;9.186;2022-12-07T12:59:36;5.30;80.20
810;DHT22;387;48.772;9.186;2022-12-07T13:13:01;5.10;80.80
810;DHT22;387;48.772;9.186;2022-12-07T13:15:48;4.90;81.70
810;DHT22;387;48.772;9.186;2022-12-07T13:23:33;5.20;80.60
810;DHT22;387;48.772;9.186;2022-12-07T13:28:38;5.20;80.60
810;DHT22;387;48.772;9.186;2022-12-07T13:33:56;5.00;80.50
810;DHT22;387;48.772;9.186;2022-12-07T13:36:24;5.10;80.60
810;DHT22;387;48.772;9.186;2022-12-07T13:38:59;5.10;80.30
810;DHT22;387;48.772;9.186;2022-12-07T13:41:29;5.20;80.20
810;DHT22;387;48.772;9.186;2022-12-07T13:44:02;5.40;79.70
810;DHT22;387;48.772;9.186;2022-12-07T13:47:04;5.40;79.30
810;DHT22;387;48.772;9.186;2022-12-07T13:49:36;5.30;78.70
810;DHT22;387;48.772;9.186;2022-12-07T13:52:20;5.20;79.00
810;DHT22;387;48.772;9.186;2022-12-07T13:54:49;5.30;79.30
810;DHT22;387;48.772;9.186;2022-12-07T13:57:16;5.40;78.70
810;DHT22;387;48.772;9.186;2022-12-07T13:59:43;5.40;78.70
810;DHT22;387;48.772;9.186;2022-12-07T14:02:25;5.50;78.70
810;DHT22;387;48.772;9.186;2022-12-07T14:04:51;5.60;78.40
810;DHT22;387;48.772;9.186;2022-12-07T14:07:24;5.50;78.10
810;DHT22;387;48.772;9.186;2022-12-07T14:09:55;5.50;78.30
810;DHT22;387;48.772;9.186;2022-12-07T14:12:21;5.70;78.30
810;DHT22;387;48.772;9.186;2022-12-07T14:14:47;5.70;78.00
810;DHT22;387;48.772;9.186;2022-12-07T14:17:21;5.60;78.00
810;DHT22;387;48.772;9.186;2022-12-07T14:19:58;5.50;78.00
810;DHT22;387;48.772;9.186;2022-12-07T14:22:32;5.50;78.10
810;DHT22;387;48.772;9.186;2022-12-07T14:25:16;5.60;78.00
810;DHT22;387;48.772;9.186;2022-12-07T14:27:51;5.50;77.80
810;DHT22;387;48.772;9.186;2022-12-07T14:30:18;5.30;78.70
810;DHT22;387;48.772;9.186;2022-12-07T14:32:44;5.20;78.90
810;DHT22;387;48.772;9.186;2022-12-07T14:35:15;5.20;79.50
810;DHT22;387;48.772;9.186;2022-12-07T14:37:44;5.30;79.00
810;DHT22;387;48.772;9.186;2022-12-07T14:40:17;5.10;79.20
810;DHT22;387;48.772;9.186;2022-12-07T14:42:44;5.20;79.50
810;DHT22;387;48.772;9.186;2022-12-07T14:45:15;5.40;79.00
810;DHT22;387;48.772;9.186;2022-12-07T14:47:43;5.30;78.70
810;DHT22;387;48.772;9.186;2022-12-07T14:50:12;5.20;79.30
810;DHT22;387;48.772;9.186;2022-12-07T14:52:38;5.10;79.60
810;DHT22;387;48.772;9.186;2022-12-07T14:55:04;5.00;80.00
810;DHT22;387;48.772;9.186;2022-12-07T14:57:30;4.90;80.50
810;DHT22;387;48.772;9.186;2022-12-07T14:59:56;4.90;81.10
810;DHT22;387;48.772;9.186;2022-12-07T15:02:21;4.80;81.50
810;DHT22;387;48.772;9.186;2022-12-07T15:04:47;4.90;81.70
810;DHT22;387;48.772;9.186;2022-12-07T15:13:33;5.10;80.90
810;DHT22;387;48.772;9.186;2022-12-07T15:16:19;5.10;80.50
810;DHT22;387;48.772;9.186;2022-12-07T15:18:46;5.20;80.60
810;DHT22;387;48.772;9.186;2022-12-07T15:21:14;5.30;80.50
810;DHT22;387;48.772;9.186;2022-12-07T15:23:40;5.30;80.30
810;DHT22;387;48.772;9.186;2022-12-07T15:26:06;5.20;80.60
810;DHT22;387;48.772;9.186;2022-12-07T15:28:31;5.20;80.50
810;DHT22;387;48.772;9.186;2022-12-07T15:30:57;5.10;80.60
810;DHT22;387;48.772;9.186;2022-12-07T15:33:22;5.10;80.90
810;DHT22;387;48.772;9.186;2022-12-07T15:35:48;5.20;81.10
810;DHT22;387;48.772;9.186;2022-12-07T15:38:14;4.90;80.90
810;DHT22;387;48.772;9.186;2022-12-07T15:40:39;4.80;81.80
810;DHT22;387;48.772;9.186;2022-12-07T15:43:07;4.80;82.20
810;DHT22;387;48.772;9.186;2022-12-07T15:52:38;4.80;81.80
810;DHT22;387;48.772;9.186;2022-12-07T15:55:04;4.80;81.70
810;DHT22;387;48.772;9.186;2022-12-07T15:57:31;4.70;81.80
810;DHT22;387;48.772;9.186;2022-12-07T15:59:56;4.60;83.00
810;DHT22;387;48.772;9.186;2022-12-07T16:02:22;4.60;83.00
810;DHT22;387;48.772;9.186;2022-12-07T16:04:49;4.60;83.00
810;DHT22;387;48.772;9.186;2022-12-07T16:07:15;4.80;82.40
810;DHT22;387;48.772;9.186;2022-12-07T16:09:42;4.60;82.40
810;DHT22;387;48.772;9.186;2022-12-07T16:12:09;4.60;82.80
810;DHT22;387;48.772;9.186;2022-12-07T16:14:35;4.60;82.70
810;DHT22;387;48.772;9.186;2022-12-07T16:17:01;4.60;82.40
810;DHT22;387;48.772;9.186;2022-12-07T16:19:27;4.70;82.40
810;DHT22;387;48.772;9.186;2022-12-07T16:21:52;4.70;81.80
810;DHT22;387;48.772;9.186;2022-12-07T16:24:18;4.60;81.80
810;DHT22;387;48.772;9.186;2022-12-07T16:26:44;4.50;82.10
810;DHT22;387;48.772;9.186;2022-12-07T16:29:14;4.50;82.20
810;DHT22;387;48.772;9.186;2022-12-07T16:31:39;4.40;82.70
810;DHT22;387;48.772;9.186;2022-12-07T16:34:06;4.40;82.70
810;DHT22;387;48.772;9.186;2022-12-07T16:36:32;4.50;82.80
810;DHT22;387;48.772;9.186;2022-12-07T16:38:59;4.50;82.10
810;DHT22;387;48.772;9.186;2022-12-07T16:41:25;4.40;81.90
810;DHT22;387;48.772;9.186;2022-12-07T16:43:51;4.40;82.20
810;DHT22;387;48.772;9.186;2022-12-07T16:46:17;4.40;82.40
810;DHT22;387;48.772;9.186;2022-12-07T16:48:43;4.30;82.20
810;DHT22;387;48.772;9.186;2022-12-07T16:51:10;4.30;82.50
810;DHT22;387;48.772;9.186;2022-12-07T16:53:37;4.30;82.80
810;DHT22;387;48.772;9.186;2022-12-07T16:56:04;4.20;82.70
810;DHT22;387;48.772;9.186;2022-12-07T16:58:31;4.20;82.70
810;DHT22;387;48.772;9.186;2022-12-07T17:00:56;4.20;82.70
810;DHT22;387;48.772;9.186;2022-12-07T17:03:22;4.10;82.70
810;DHT22;387;48.772;9.186;2022-12-07T17:05:48;4.10;82.50
810;DHT22;387;48.772;9.186;2022-12-07T17:08:14;4.10;82.50
810;DHT22;387;48.772;9.186;2022-12-07T17:10:43;4.10;82.70
810;DHT22;387;48.772;9.186;2022-12-07T17:13:09;4.10;82.50
810;DHT22;387;48.772;9.186;2022-12-07T17:15:59;4.10;82.70
810;DHT22;387;48.772;9.186;2022-12-07T17:18:30;4.10;83.00
810;DHT22;387;48.772;9.186;2022-12-07T17:21:05;4.10;82.80
810;DHT22;387;48.772;9.186;2022-12-07T17:23:32;4.10;83.00
810;DHT22;387;48.772;9.186;2022-12-07T17:26:08;4.10;83.00
810;DHT22;387;48.772;9.186;2022-12-07T17:28:36;4.00;83.10
810;DHT22;387;48.772;9.186;2022-12-07T17:31:07;4.00;83.40
810;DHT22;387;48.772;9.186;2022-12-07T17:33:33;3.90;83.60
810;DHT22;387;48.772;9.186;2022-12-07T17:36:00;4.00;83.30
810;DHT22;387;48.772;9.186;2022-12-07T17:38:27;4.00;83.10
810;DHT22;387;48.772;9.186;2022-12-07T17:40:53;4.10;83.10
810;DHT22;387;48.772;9.186;2022-12-07T17:43:18;4.00;83.30
810;DHT22;387;48.772;9.186;2022-12-07T17:45:44;4.00;83.80
810;DHT22;387;48.772;9.186;2022-12-07T17:48:10;4.00;84.00
810;DHT22;387;48.772;9.186;2022-12-07T17:50:38;4.10;84.00
810;DHT22;387;48.772;9.186;2022-12-07T17:53:23;4.10;84.00
810;DHT22;387;48.772;9.186;2022-12-07T17:55:52;4.00;83.70
810;DHT22;387;48.772;9.186;2022-12-07T17:58:18;4.10;84.00
810;DHT22;387;48.772;9.186;2022-12-07T18:00:44;4.20;83.10
810;DHT22;387;48.772;9.186;2022-12-07T18:03:09;4.20;82.70
810;DHT22;387;48.772;9.186;2022-12-07T18:05:37;4.20;82.70
810;DHT22;387;48.772;9.186;2022-12-07T18:08:04;4.20;82.50
810;DHT22;387;48.772;9.186;2022-12-07T18:10:29;4.20;82.40
810;DHT22;387;48.772;9.186;2022-12-07T18:12:55;4.10;82.70
810;DHT22;387;48.772;9.186;2022-12-07T18:15:41;4.20;82.80
810;DHT22;387;48.772;9.186;2022-12-07T18:18:06;4.10;82.70
810;DHT22;387;48.772;9.186;2022-12-07T18:20:32;4.10;82.70
810;DHT22;387;48.772;9.186;2022-12-07T18:22:58;4.00;83.00
810;DHT22;387;48.772;9.186;2022-12-07T18:25:23;4.00;83.10
810;DHT22;387;48.772;9.186;2022-12-07T18:27:49;4.10;83.30
810;DHT22;387;48.772;9.186;2022-12-07T18:30:14;4.00;83.10
810;DHT22;387;48.772;9.186;2022-12-07T18:32:40;4.10;83.30
810;DHT22;387;48.772;9.186;2022-12-07T18:35:06;4.10;83.60
810;DHT22;387;48.772;9.186;2022-12-07T18:37:32;4.10;83.30
810;DHT22;387;48.772;9.186;2022-12-07T18:39:58;4.10;83.10
810;DHT22;387;48.772;9.186;2022-12-07T18:42:24;4.10;83.10
810;DHT22;387;48.772;9.186;2022-12-07T18:44:49;4.00;83.60
810;DHT22;387;48.772;9.186;2022-12-07T18:47:15;4.10;83.70
810;DHT22;387;48.772;9.186;2022-12-07T18:49:40;4.20;83.80
810;DHT22;387;48.772;9.186;2022-12-07T18:52:06;4.30;83.40
810;DHT22;387;48.772;9.186;2022-12-07T18:54:32;4.20;83.00
810;DHT22;387;48.772;9.186;2022-12-07T18:56:57;4.20;83.30
810;DHT22;387;48.772;9.186;2022-12-07T18:59:23;4.30;83.10